sensor_id;sensor_type;location;lat;lon;timestamp;P1;durP1;ratioP1;P2;durP2;ratioP2
16460;SDS011;8341;42.048;24.650;2023-08-12T03:12:41;3.38;;;3.00;;
16460;SDS011;8341;42.048;24.650;2023-08-12T03:15:09;5.40;;;3.10;;
16460;SDS011;8341;42.048;24.650;2023-08-12T03:17:36;2.85;;;2.65;;
16460;SDS011;8341;42.048;24.650;2023-08-12T03:20:05;5.45;;;3.58;;
16460;SDS011;8341;42.048;24.650;2023-08-12T03:22:34;4.72;;;3.70;;
16460;SDS011;8341;42.048;24.650;2023-08-12T03:25:01;6.10;;;5.55;;
16460;SDS011;8341;42.048;24.650;2023-08-12T03:27:28;4.65;;;4.07;;
16460;SDS011;8341;42.048;24.650;2023-08-12T03:29:57;5.13;;;4.63;;
16460;SDS011;8341;42.048;24.650;2023-08-12T03:32:24;4.45;;;4.05;;
16460;SDS011;8341;42.048;24.650;2023-08-12T03:34:51;2.38;;;2.28;;
16460;SDS011;8341;42.048;24.650;2023-08-12T03:37:19;2.85;;;2.63;;
16460;SDS011;8341;42.048;24.650;2023-08-12T03:39:46;3.25;;;2.95;;
16460;SDS011;8341;42.048;24.650;2023-08-12T03:42:13;7.60;;;6.90;;
16460;SDS011;8341;42.048;24.650;2023-08-12T03:44:42;6.65;;;5.95;;
16460;SDS011;8341;42.048;24.650;2023-08-12T03:47:10;6.97;;;5.40;;
16460;SDS011;8341;42.048;24.650;2023-08-12T03:49:37;4.35;;;4.05;;
16460;SDS011;8341;42.048;24.650;2023-08-12T03:52:04;4.15;;;3.30;;
16460;SDS011;8341;42.048;24.650;2023-08-12T03:54:32;4.70;;;4.10;;
16460;SDS011;8341;42.048;24.650;2023-08-12T03:56:59;4.57;;;4.07;;
16460;SDS011;8341;42.048;24.650;2023-08-12T03:59:26;6.05;;;4.57;;
16460;SDS011;8341;42.048;24.650;2023-08-12T04:01:53;7.30;;;6.60;;
16460;SDS011;8341;42.048;24.650;2023-08-12T04:04:21;3.67;;;3.38;;
16460;SDS011;8341;42.048;24.650;2023-08-12T04:06:48;4.75;;;4.35;;
16460;SDS011;8341;42.048;24.650;2023-08-12T04:09:16;4.28;;;3.88;;
16460;SDS011;8341;42.048;24.650;2023-08-12T04:11:44;7.28;;;6.57;;
16460;SDS011;8341;42.048;24.650;2023-08-12T04:14:11;5.63;;;5.10;;
16460;SDS011;8341;42.048;24.650;2023-08-12T04:16:38;5.95;;;4.68;;
16460;SDS011;8341;42.048;24.650;2023-08-12T04:19:05;3.70;;;3.40;;
16460;SDS011;8341;42.048;24.650;2023-08-12T04:21:34;7.25;;;6.28;;
16460;SDS011;8341;42.048;24.650;2023-08-12T04:24:01;7.28;;;6.53;;
16460;SDS011;8341;42.048;24.650;2023-08-12T04:26:28;7.25;;;6.20;;
16460;SDS011;8341;42.048;24.650;2023-08-12T04:28:55;5.32;;;4.85;;
16460;SDS011;8341;42.048;24.650;2023-08-12T04:31:22;4.18;;;3.53;;
16460;SDS011;8341;42.048;24.650;2023-08-12T04:33:49;4.65;;;3.42;;
16460;SDS011;8341;42.048;24.650;2023-08-12T04:36:18;4.68;;;3.08;;
16460;SDS011;8341;42.048;24.650;2023-08-12T04:38:46;2.83;;;2.63;;
16460;SDS011;8341;42.048;24.650;2023-08-12T04:41:13;2.40;;;2.30;;
16460;SDS011;8341;42.048;24.650;2023-08-12T04:43:40;3.28;;;2.97;;
16460;SDS011;8341;42.048;24.650;2023-08-12T04:46:07;2.60;;;2.30;;
16460;SDS011;8341;42.048;24.650;2023-08-12T04:48:34;2.92;;;2.47;;
16460;SDS011;8341;42.048;24.650;2023-08-12T04:51:01;2.30;;;2.10;;
16460;SDS011;8341;42.048;24.650;2023-08-12T04:53:30;3.10;;;2.38;;
16460;SDS011;8341;42.048;24.650;2023-08-12T04:55:58;2.88;;;2.45;;
16460;SDS011;8341;42.048;24.650;2023-08-12T04:58:25;2.65;;;2.45;;
16460;SDS011;8341;42.048;24.650;2023-08-12T05:00:52;5.05;;;2.45;;
16460;SDS011;8341;42.048;24.650;2023-08-12T05:03:19;3.88;;;2.50;;
16460;SDS011;8341;42.048;24.650;2023-08-12T05:05:48;2.47;;;2.38;;
16460;SDS011;8341;42.048;24.650;2023-08-12T05:08:16;2.83;;;2.58;;
16460;SDS011;8341;42.048;24.650;2023-08-12T05:10:43;3.20;;;2.83;;
16460;SDS011;8341;42.048;24.650;2023-08-12T05:13:15;3.67;;;3.10;;
16460;SDS011;8341;42.048;24.650;2023-08-12T05:15:44;4.07;;;3.72;;
16460;SDS011;8341;42.048;24.650;2023-08-12T05:18:12;5.47;;;4.95;;
16460;SDS011;8341;42.048;24.650;2023-08-12T05:20:39;7.50;;;6.70;;
16460;SDS011;8341;42.048;24.650;2023-08-12T05:23:07;5.95;;;5.25;;
16460;SDS011;8341;42.048;24.650;2023-08-12T05:25:33;7.20;;;5.88;;
16460;SDS011;8341;42.048;24.650;2023-08-12T05:28:01;5.68;;;3.53;;
16460;SDS011;8341;42.048;24.650;2023-08-12T05:30:29;5.97;;;3.72;;
16460;SDS011;8341;42.048;24.650;2023-08-12T05:32:56;4.07;;;3.67;;
16460;SDS011;8341;42.048;24.650;2023-08-12T05:35:24;4.10;;;2.80;;
16460;SDS011;8341;42.048;24.650;2023-08-12T05:37:51;2.72;;;2.53;;
16460;SDS011;8341;42.048;24.650;2023-08-12T05:40:18;5.40;;;2.90;;
16460;SDS011;8341;42.048;24.650;2023-08-12T05:42:45;4.63;;;4.25;;
16460;SDS011;8341;42.048;24.650;2023-08-12T05:45:12;5.07;;;3.92;;
16460;SDS011;8341;42.048;24.650;2023-08-12T05:47:41;5.05;;;4.57;;
16460;SDS011;8341;42.048;24.650;2023-08-12T05:50:08;7.93;;;4.80;;
16460;SDS011;8341;42.048;24.650;2023-08-12T05:52:35;8.75;;;5.85;;
16460;SDS011;8341;42.048;24.650;2023-08-12T05:55:03;14.23;;;11.60;;
16460;SDS011;8341;42.048;24.650;2023-08-12T05:57:30;11.65;;;10.45;;
16460;SDS011;8341;42.048;24.650;2023-08-12T05:59:58;9.88;;;8.73;;
16460;SDS011;8341;42.048;24.650;2023-08-12T06:02:25;10.05;;;7.93;;
16460;SDS011;8341;42.048;24.650;2023-08-12T06:04:54;6.00;;;5.20;;
16460;SDS011;8341;42.048;24.650;2023-08-12T06:07:21;6.18;;;5.60;;
16460;SDS011;8341;42.048;24.650;2023-08-12T06:09:48;8.52;;;5.22;;
16460;SDS011;8341;42.048;24.650;2023-08-12T06:12:15;4.65;;;4.20;;
16460;SDS011;8341;42.048;24.650;2023-08-12T06:14:43;6.05;;;4.43;;
16460;SDS011;8341;42.048;24.650;2023-08-12T06:17:10;4.00;;;3.60;;
16460;SDS011;8341;42.048;24.650;2023-08-12T06:19:37;7.68;;;3.40;;
16460;SDS011;8341;42.048;24.650;2023-08-12T06:22:05;4.18;;;3.53;;
16460;SDS011;8341;42.048;24.650;2023-08-12T06:24:32;11.70;;;10.02;;
16460;SDS011;8341;42.048;24.650;2023-08-12T06:26:59;10.65;;;8.77;;
16460;SDS011;8341;42.048;24.650;2023-08-12T06:29:26;7.38;;;6.50;;
16460;SDS011;8341;42.048;24.650;2023-08-12T06:31:53;9.45;;;6.43;;
16460;SDS011;8341;42.048;24.650;2023-08-12T06:34:20;12.30;;;4.55;;
16460;SDS011;8341;42.048;24.650;2023-08-12T06:36:47;4.20;;;3.53;;
16460;SDS011;8341;42.048;24.650;2023-08-12T06:39:16;4.15;;;3.28;;
16460;SDS011;8341;42.048;24.650;2023-08-12T06:41:43;3.13;;;2.92;;
16460;SDS011;8341;42.048;24.650;2023-08-12T06:44:10;3.70;;;2.90;;
16460;SDS011;8341;42.048;24.650;2023-08-12T06:46:37;3.20;;;2.90;;
16460;SDS011;8341;42.048;24.650;2023-08-12T06:49:04;2.53;;;2.42;;
16460;SDS011;8341;42.048;24.650;2023-08-12T06:51:31;4.00;;;2.47;;
16460;SDS011;8341;42.048;24.650;2023-08-12T06:53:58;2.90;;;2.60;;
16460;SDS011;8341;42.048;24.650;2023-08-12T06:56:26;3.13;;;2.83;;
16460;SDS011;8341;42.048;24.650;2023-08-12T06:58:53;3.05;;;2.28;;
16460;SDS011;8341;42.048;24.650;2023-08-12T07:01:20;3.47;;;2.55;;
16460;SDS011;8341;42.048;24.650;2023-08-12T07:03:47;3.17;;;2.60;;
16460;SDS011;8341;42.048;24.650;2023-08-12T07:06:14;5.15;;;2.40;;
16460;SDS011;8341;42.048;24.650;2023-08-12T07:08:41;3.60;;;2.60;;
16460;SDS011;8341;42.048;24.650;2023-08-12T07:11:08;2.95;;;2.50;;
16460;SDS011;8341;42.048;24.650;2023-08-12T07:13:37;6.28;;;2.88;;
16460;SDS011;8341;42.048;24.650;2023-08-12T07:16:04;3.03;;;2.72;;
16460;SDS011;8341;42.048;24.650;2023-08-12T07:18:31;5.43;;;2.55;;
16460;SDS011;8341;42.048;24.650;2023-08-12T07:20:58;4.60;;;2.83;;
16460;SDS011;8341;42.048;24.650;2023-08-12T07:23:25;3.08;;;2.75;;
16460;SDS011;8341;42.048;24.650;2023-08-12T07:25:52;2.60;;;2.20;;
16460;SDS011;8341;42.048;24.650;2023-08-12T07:28:19;3.30;;;2.35;;
16460;SDS011;8341;42.048;24.650;2023-08-12T07:30:49;2.50;;;2.30;;
16460;SDS011;8341;42.048;24.650;2023-08-12T07:33:17;2.45;;;2.25;;
16460;SDS011;8341;42.048;24.650;2023-08-12T07:35:44;2.55;;;2.35;;
16460;SDS011;8341;42.048;24.650;2023-08-12T07:38:11;3.17;;;2.45;;
16460;SDS011;8341;42.048;24.650;2023-08-12T07:40:38;2.40;;;2.30;;
16460;SDS011;8341;42.048;24.650;2023-08-12T07:43:05;2.33;;;2.20;;
16460;SDS011;8341;42.048;24.650;2023-08-12T07:45:32;2.28;;;2.10;;
16460;SDS011;8341;42.048;24.650;2023-08-12T07:48:01;2.53;;;2.03;;
16460;SDS011;8341;42.048;24.650;2023-08-12T07:50:29;2.13;;;2.03;;
16460;SDS011;8341;42.048;24.650;2023-08-12T07:52:56;2.42;;;2.30;;
16460;SDS011;8341;42.048;24.650;2023-08-12T07:55:23;4.60;;;2.22;;
16460;SDS011;8341;42.048;24.650;2023-08-12T07:57:50;2.30;;;2.20;;
16460;SDS011;8341;42.048;24.650;2023-08-12T08:00:17;4.18;;;2.45;;
16460;SDS011;8341;42.048;24.650;2023-08-12T08:02:44;2.35;;;2.17;;
16460;SDS011;8341;42.048;24.650;2023-08-12T08:05:12;2.15;;;2.05;;
16460;SDS011;8341;42.048;24.650;2023-08-12T08:07:40;2.97;;;2.20;;
16460;SDS011;8341;42.048;24.650;2023-08-12T08:10:07;2.40;;;2.20;;
16460;SDS011;8341;42.048;24.650;2023-08-12T08:12:34;2.00;;;1.90;;
16460;SDS011;8341;42.048;24.650;2023-08-12T08:15:02;2.25;;;2.05;;
16460;SDS011;8341;42.048;24.650;2023-08-12T08:17:29;2.67;;;2.38;;
16460;SDS011;8341;42.048;24.650;2023-08-12T08:19:56;2.10;;;1.92;;
16460;SDS011;8341;42.048;24.650;2023-08-12T08:22:24;3.80;;;2.38;;
16460;SDS011;8341;42.048;24.650;2023-08-12T08:24:51;2.47;;;2.28;;
16460;SDS011;8341;42.048;24.650;2023-08-12T08:27:19;4.38;;;2.25;;
16460;SDS011;8341;42.048;24.650;2023-08-12T08:29:46;2.35;;;1.90;;
16460;SDS011;8341;42.048;24.650;2023-08-12T08:32:13;1.95;;;1.80;;
16460;SDS011;8341;42.048;24.650;2023-08-12T08:34:40;3.40;;;2.00;;
16460;SDS011;8341;42.048;24.650;2023-08-12T08:37:07;2.20;;;2.00;;
16460;SDS011;8341;42.048;24.650;2023-08-12T08:39:35;2.00;;;1.90;;
16460;SDS011;8341;42.048;24.650;2023-08-12T08:42:02;2.33;;;2.10;;
16460;SDS011;8341;42.048;24.650;2023-08-12T08:44:32;2.65;;;1.90;;
16460;SDS011;8341;42.048;24.650;2023-08-12T08:47:00;4.30;;;1.90;;
16460;SDS011;8341;42.048;24.650;2023-08-12T08:49:28;1.90;;;1.80;;
16460;SDS011;8341;42.048;24.650;2023-08-12T08:51:56;4.18;;;1.90;;
16460;SDS011;8341;42.048;24.650;2023-08-12T08:54:25;2.10;;;2.00;;
16460;SDS011;8341;42.048;24.650;2023-08-12T08:56:54;2.28;;;1.80;;
16460;SDS011;8341;42.048;24.650;2023-08-12T08:59:21;3.88;;;1.80;;
16460;SDS011;8341;42.048;24.650;2023-08-12T09:01:49;2.05;;;1.95;;
16460;SDS011;8341;42.048;24.650;2023-08-12T09:04:17;1.77;;;1.67;;
16460;SDS011;8341;42.048;24.650;2023-08-12T09:06:47;2.90;;;1.90;;
16460;SDS011;8341;42.048;24.650;2023-08-12T09:09:19;2.92;;;1.88;;
16460;SDS011;8341;42.048;24.650;2023-08-12T09:11:48;2.20;;;2.00;;
16460;SDS011;8341;42.048;24.650;2023-08-12T09:14:18;2.17;;;1.98;;
16460;SDS011;8341;42.048;24.650;2023-08-12T09:16:46;2.05;;;1.95;;
16460;SDS011;8341;42.048;24.650;2023-08-12T09:19:13;2.00;;;1.90;;
16460;SDS011;8341;42.048;24.650;2023-08-12T09:21:40;2.17;;;1.90;;
16460;SDS011;8341;42.048;24.650;2023-08-12T09:24:07;1.98;;;1.70;;
16460;SDS011;8341;42.048;24.650;2023-08-12T09:26:34;2.05;;;1.90;;
16460;SDS011;8341;42.048;24.650;2023-08-12T09:29:01;3.75;;;1.80;;
16460;SDS011;8341;42.048;24.650;2023-08-12T09:31:30;2.13;;;2.03;;
16460;SDS011;8341;42.048;24.650;2023-08-12T09:33:58;2.45;;;2.25;;
16460;SDS011;8341;42.048;24.650;2023-08-12T09:36:29;2.17;;;1.95;;
16460;SDS011;8341;42.048;24.650;2023-08-12T09:38:56;3.50;;;1.77;;
16460;SDS011;8341;42.048;24.650;2023-08-12T09:41:24;2.00;;;1.90;;
16460;SDS011;8341;42.048;24.650;2023-08-12T09:43:52;1.92;;;1.83;;
16460;SDS011;8341;42.048;24.650;2023-08-12T09:46:21;1.80;;;1.70;;
16460;SDS011;8341;42.048;24.650;2023-08-12T09:48:50;2.33;;;1.88;;
16460;SDS011;8341;42.048;24.650;2023-08-12T09:51:18;2.08;;;1.98;;
16460;SDS011;8341;42.048;24.650;2023-08-12T09:53:47;1.60;;;1.50;;
16460;SDS011;8341;42.048;24.650;2023-08-12T09:56:14;2.00;;;1.80;;
16460;SDS011;8341;42.048;24.650;2023-08-12T09:58:47;2.15;;;1.95;;
16460;SDS011;8341;42.048;24.650;2023-08-12T10:01:16;2.05;;;1.95;;
16460;SDS011;8341;42.048;24.650;2023-08-12T10:03:46;2.33;;;1.90;;
16460;SDS011;8341;42.048;24.650;2023-08-12T10:06:17;2.35;;;1.98;;
16460;SDS011;8341;42.048;24.650;2023-08-12T10:08:45;1.95;;;1.85;;
16460;SDS011;8341;42.048;24.650;2023-08-12T10:11:13;1.77;;;1.67;;
16460;SDS011;8341;42.048;24.650;2023-08-12T10:13:41;1.90;;;1.80;;
16460;SDS011;8341;42.048;24.650;2023-08-12T10:16:08;3.72;;;2.00;;
16460;SDS011;8341;42.048;24.650;2023-08-12T10:18:36;2.20;;;2.10;;
16460;SDS011;8341;42.048;24.650;2023-08-12T10:21:06;2.03;;;1.92;;
16460;SDS011;8341;42.048;24.650;2023-08-12T10:23:37;2.30;;;1.73;;
16460;SDS011;8341;42.048;24.650;2023-08-12T10:26:05;2.22;;;1.70;;
16460;SDS011;8341;42.048;24.650;2023-08-12T10:28:33;3.70;;;1.80;;
16460;SDS011;8341;42.048;24.650;2023-08-12T10:31:02;1.88;;;1.77;;
16460;SDS011;8341;42.048;24.650;2023-08-12T10:33:34;2.00;;;1.67;;
16460;SDS011;8341;42.048;24.650;2023-08-12T10:36:03;1.80;;;1.67;;
16460;SDS011;8341;42.048;24.650;2023-08-12T10:38:31;2.28;;;2.03;;
16460;SDS011;8341;42.048;24.650;2023-08-12T10:41:19;2.08;;;1.80;;
16460;SDS011;8341;42.048;24.650;2023-08-12T10:43:54;2.00;;;1.90;;
16460;SDS011;8341;42.048;24.650;2023-08-12T10:46:28;4.43;;;1.50;;
16460;SDS011;8341;42.048;24.650;2023-08-12T10:48:57;1.65;;;1.55;;
16460;SDS011;8341;42.048;24.650;2023-08-12T10:51:39;1.75;;;1.65;;
16460;SDS011;8341;42.048;24.650;2023-08-12T10:54:17;1.60;;;1.50;;
16460;SDS011;8341;42.048;24.650;2023-08-12T10:57:18;2.83;;;1.77;;
16460;SDS011;8341;42.048;24.650;2023-08-12T11:00:03;3.00;;;1.73;;
16460;SDS011;8341;42.048;24.650;2023-08-12T11:02:33;2.10;;;1.85;;
16460;SDS011;8341;42.048;24.650;2023-08-12T11:05:01;1.75;;;1.60;;
16460;SDS011;8341;42.048;24.650;2023-08-12T11:07:33;3.00;;;1.60;;
16460;SDS011;8341;42.048;24.650;2023-08-12T11:10:04;3.00;;;2.80;;
16460;SDS011;8341;42.048;24.650;2023-08-12T11:12:38;2.08;;;1.88;;
16460;SDS011;8341;42.048;24.650;2023-08-12T11:15:06;1.42;;;1.42;;
16460;SDS011;8341;42.048;24.650;2023-08-12T11:17:34;1.90;;;1.80;;
16460;SDS011;8341;42.048;24.650;2023-08-12T11:20:03;1.80;;;1.70;;
16460;SDS011;8341;42.048;24.650;2023-08-12T11:22:32;1.60;;;1.50;;
16460;SDS011;8341;42.048;24.650;2023-08-12T11:25:03;2.13;;;1.85;;
16460;SDS011;8341;42.048;24.650;2023-08-12T11:27:41;1.92;;;1.83;;
16460;SDS011;8341;42.048;24.650;2023-08-12T11:30:09;1.95;;;1.75;;
16460;SDS011;8341;42.048;24.650;2023-08-12T11:32:40;1.80;;;1.70;;
16460;SDS011;8341;42.048;24.650;2023-08-12T11:35:09;1.83;;;1.73;;
16460;SDS011;8341;42.048;24.650;2023-08-12T11:37:39;1.70;;;1.60;;
16460;SDS011;8341;42.048;24.650;2023-08-12T11:40:08;4.60;;;1.42;;
16460;SDS011;8341;42.048;24.650;2023-08-12T11:42:36;1.70;;;1.60;;
16460;SDS011;8341;42.048;24.650;2023-08-12T11:45:05;1.60;;;1.50;;
16460;SDS011;8341;42.048;24.650;2023-08-12T11:47:34;2.75;;;1.90;;
16460;SDS011;8341;42.048;24.650;2023-08-12T11:50:02;2.35;;;2.15;;
16460;SDS011;8341;42.048;24.650;2023-08-12T11:52:29;1.80;;;1.70;;
16460;SDS011;8341;42.048;24.650;2023-08-12T11:54:57;1.83;;;1.73;;
16460;SDS011;8341;42.048;24.650;2023-08-12T11:57:25;5.13;;;1.90;;
16460;SDS011;8341;42.048;24.650;2023-08-12T11:59:53;1.83;;;1.73;;
16460;SDS011;8341;42.048;24.650;2023-08-12T12:02:27;2.13;;;2.00;;
16460;SDS011;8341;42.048;24.650;2023-08-12T12:04:54;1.95;;;1.85;;
16460;SDS011;8341;42.048;24.650;2023-08-12T12:07:21;1.73;;;1.63;;
16460;SDS011;8341;42.048;24.650;2023-08-12T12:09:51;2.75;;;1.98;;
16460;SDS011;8341;42.048;24.650;2023-08-12T12:12:21;1.90;;;1.80;;
16460;SDS011;8341;42.048;24.650;2023-08-12T12:14:50;1.95;;;1.77;;
16460;SDS011;8341;42.048;24.650;2023-08-12T12:17:18;3.00;;;1.85;;
16460;SDS011;8341;42.048;24.650;2023-08-12T12:19:51;2.65;;;1.70;;
16460;SDS011;8341;42.048;24.650;2023-08-12T12:22:19;1.85;;;1.75;;
16460;SDS011;8341;42.048;24.650;2023-08-12T12:24:46;2.67;;;1.90;;
16460;SDS011;8341;42.048;24.650;2023-08-12T12:27:13;2.70;;;1.88;;
16460;SDS011;8341;42.048;24.650;2023-08-12T12:29:41;6.60;;;2.05;;
16460;SDS011;8341;42.048;24.650;2023-08-12T12:32:08;2.10;;;2.00;;
16460;SDS011;8341;42.048;24.650;2023-08-12T12:34:37;4.35;;;2.30;;
16460;SDS011;8341;42.048;24.650;2023-08-12T12:37:06;2.95;;;2.05;;
16460;SDS011;8341;42.048;24.650;2023-08-12T12:39:33;2.10;;;2.00;;
16460;SDS011;8341;42.048;24.650;2023-08-12T12:42:00;3.22;;;2.30;;
16460;SDS011;8341;42.048;24.650;2023-08-12T12:44:27;2.10;;;2.00;;
16460;SDS011;8341;42.048;24.650;2023-08-12T12:46:54;2.90;;;2.22;;
16460;SDS011;8341;42.048;24.650;2023-08-12T12:49:21;4.30;;;2.20;;
16460;SDS011;8341;42.048;24.650;2023-08-12T12:51:49;3.40;;;2.00;;
16460;SDS011;8341;42.048;24.650;2023-08-12T12:54:18;1.92;;;1.83;;
16460;SDS011;8341;42.048;24.650;2023-08-12T12:56:45;2.38;;;2.03;;
16460;SDS011;8341;42.048;24.650;2023-08-12T12:59:12;2.03;;;1.90;;
16460;SDS011;8341;42.048;24.650;2023-08-12T13:01:40;2.83;;;1.92;;
16460;SDS011;8341;42.048;24.650;2023-08-12T13:04:07;3.92;;;2.10;;
16460;SDS011;8341;42.048;24.650;2023-08-12T13:06:34;2.05;;;1.88;;
16460;SDS011;8341;42.048;24.650;2023-08-12T13:09:01;3.67;;;2.47;;
16460;SDS011;8341;42.048;24.650;2023-08-12T13:11:31;2.20;;;2.10;;
16460;SDS011;8341;42.048;24.650;2023-08-12T13:13:59;2.88;;;2.40;;
16460;SDS011;8341;42.048;24.650;2023-08-12T13:16:26;2.08;;;1.98;;
16460;SDS011;8341;42.048;24.650;2023-08-12T13:18:54;2.10;;;1.90;;
16460;SDS011;8341;42.048;24.650;2023-08-12T13:21:21;2.28;;;2.10;;
16460;SDS011;8341;42.048;24.650;2023-08-12T13:23:48;2.20;;;2.10;;
16460;SDS011;8341;42.048;24.650;2023-08-12T13:26:14;2.53;;;2.33;;
16460;SDS011;8341;42.048;24.650;2023-08-12T13:28:43;2.05;;;1.90;;
16460;SDS011;8341;42.048;24.650;2023-08-12T13:31:10;3.35;;;2.22;;
16460;SDS011;8341;42.048;24.650;2023-08-12T13:33:37;2.22;;;2.13;;
16460;SDS011;8341;42.048;24.650;2023-08-12T13:36:04;2.47;;;2.28;;
16460;SDS011;8341;42.048;24.650;2023-08-12T13:38:31;4.70;;;2.28;;
16460;SDS011;8341;42.048;24.650;2023-08-12T13:40:58;3.13;;;2.10;;
16460;SDS011;8341;42.048;24.650;2023-08-12T13:43:25;2.08;;;1.98;;
16460;SDS011;8341;42.048;24.650;2023-08-12T13:45:54;2.47;;;1.70;;
16460;SDS011;8341;42.048;24.650;2023-08-12T13:48:21;2.00;;;1.90;;
16460;SDS011;8341;42.048;24.650;2023-08-12T13:50:48;2.10;;;2.00;;
16460;SDS011;8341;42.048;24.650;2023-08-12T13:53:17;1.90;;;1.80;;
16460;SDS011;8341;42.048;24.650;2023-08-12T13:55:44;2.40;;;2.17;;
16460;SDS011;8341;42.048;24.650;2023-08-12T13:58:11;2.30;;;2.20;;
16460;SDS011;8341;42.048;24.650;2023-08-12T14:00:39;2.20;;;2.10;;
16460;SDS011;8341;42.048;24.650;2023-08-12T14:03:07;2.15;;;1.98;;
16460;SDS011;8341;42.048;24.650;2023-08-12T14:05:34;2.13;;;2.03;;
16460;SDS011;8341;42.048;24.650;2023-08-12T14:08:01;3.80;;;2.10;;
16460;SDS011;8341;42.048;24.650;2023-08-12T14:10:28;4.20;;;2.33;;
16460;SDS011;8341;42.048;24.650;2023-08-12T14:12:55;2.40;;;2.30;;
16460;SDS011;8341;42.048;24.650;2023-08-12T14:15:22;2.42;;;2.22;;
16460;SDS011;8341;42.048;24.650;2023-08-12T14:17:49;2.28;;;2.15;;
16460;SDS011;8341;42.048;24.650;2023-08-12T14:20:18;2.63;;;2.40;;
16460;SDS011;8341;42.048;24.650;2023-08-12T14:22:45;3.20;;;2.90;;
16460;SDS011;8341;42.048;24.650;2023-08-12T14:25:12;3.38;;;2.60;;
16460;SDS011;8341;42.048;24.650;2023-08-12T14:27:39;2.53;;;2.30;;
16460;SDS011;8341;42.048;24.650;2023-08-12T14:30:07;2.97;;;2.72;;
16460;SDS011;8341;42.048;24.650;2023-08-12T14:32:34;7.35;;;2.83;;
16460;SDS011;8341;42.048;24.650;2023-08-12T14:35:02;4.32;;;2.55;;
16460;SDS011;8341;42.048;24.650;2023-08-12T14:37:32;3.63;;;2.22;;
16460;SDS011;8341;42.048;24.650;2023-08-12T14:39:58;3.38;;;2.42;;
16460;SDS011;8341;42.048;24.650;2023-08-12T14:42:26;2.55;;;1.90;;
16460;SDS011;8341;42.048;24.650;2023-08-12T14:44:53;3.08;;;2.20;;
16460;SDS011;8341;42.048;24.650;2023-08-12T14:47:20;4.07;;;1.85;;
16460;SDS011;8341;42.048;24.650;2023-08-12T14:49:47;3.30;;;2.30;;
16460;SDS011;8341;42.048;24.650;2023-08-12T14:52:18;2.25;;;2.15;;
16460;SDS011;8341;42.048;24.650;2023-08-12T14:54:47;2.05;;;1.95;;
16460;SDS011;8341;42.048;24.650;2023-08-12T14:57:14;3.53;;;2.10;;
16460;SDS011;8341;42.048;24.650;2023-08-12T14:59:41;3.22;;;1.80;;
16460;SDS011;8341;42.048;24.650;2023-08-12T15:02:08;2.90;;;2.00;;
16460;SDS011;8341;42.048;24.650;2023-08-12T15:04:35;3.05;;;1.88;;
16460;SDS011;8341;42.048;24.650;2023-08-12T15:07:02;2.92;;;1.80;;
16460;SDS011;8341;42.048;24.650;2023-08-12T15:09:30;5.40;;;4.47;;
16460;SDS011;8341;42.048;24.650;2023-08-12T15:11:58;3.08;;;2.40;;
16460;SDS011;8341;42.048;24.650;2023-08-12T15:14:25;2.70;;;2.25;;
16460;SDS011;8341;42.048;24.650;2023-08-12T15:16:52;2.53;;;2.30;;
16460;SDS011;8341;42.048;24.650;2023-08-12T15:19:19;2.33;;;2.22;;
16460;SDS011;8341;42.048;24.650;2023-08-12T15:21:46;3.17;;;2.25;;
16460;SDS011;8341;42.048;24.650;2023-08-12T15:24:14;2.47;;;1.73;;
16460;SDS011;8341;42.048;24.650;2023-08-12T15:26:41;2.17;;;1.98;;
16460;SDS011;8341;42.048;24.650;2023-08-12T15:29:09;2.47;;;2.03;;
16460;SDS011;8341;42.048;24.650;2023-08-12T15:31:36;2.53;;;1.98;;
16460;SDS011;8341;42.048;24.650;2023-08-12T15:34:03;2.33;;;2.10;;
16460;SDS011;8341;42.048;24.650;2023-08-12T15:36:30;2.13;;;2.00;;
16460;SDS011;8341;42.048;24.650;2023-08-12T15:39:00;2.25;;;1.80;;
16460;SDS011;8341;42.048;24.650;2023-08-12T15:41:27;2.13;;;1.92;;
16460;SDS011;8341;42.048;24.650;2023-08-12T15:43:54;3.22;;;1.80;;
16460;SDS011;8341;42.048;24.650;2023-08-12T15:46:23;2.30;;;2.10;;
16460;SDS011;8341;42.048;24.650;2023-08-12T15:48:50;1.85;;;1.75;;
16460;SDS011;8341;42.048;24.650;2023-08-12T15:51:17;1.55;;;1.55;;
16460;SDS011;8341;42.048;24.650;2023-08-12T15:53:44;1.90;;;1.80;;
16460;SDS011;8341;42.048;24.650;2023-08-12T15:56:11;2.17;;;1.58;;
16460;SDS011;8341;42.048;24.650;2023-08-12T15:58:38;4.38;;;2.00;;
16460;SDS011;8341;42.048;24.650;2023-08-12T16:01:05;3.60;;;1.85;;
16460;SDS011;8341;42.048;24.650;2023-08-12T16:03:34;13.65;;;3.33;;
16460;SDS011;8341;42.048;24.650;2023-08-12T16:06:01;2.20;;;2.00;;
16460;SDS011;8341;42.048;24.650;2023-08-12T16:08:28;3.45;;;1.70;;
16460;SDS011;8341;42.048;24.650;2023-08-12T16:10:55;2.55;;;1.92;;
16460;SDS011;8341;42.048;24.650;2023-08-12T16:13:22;2.47;;;1.80;;
16460;SDS011;8341;42.048;24.650;2023-08-12T16:15:49;2.25;;;1.83;;
16460;SDS011;8341;42.048;24.650;2023-08-12T16:18:16;2.58;;;2.10;;
16460;SDS011;8341;42.048;24.650;2023-08-12T16:20:44;2.33;;;1.83;;
16460;SDS011;8341;42.048;24.650;2023-08-12T16:23:11;2.10;;;1.90;;
16460;SDS011;8341;42.048;24.650;2023-08-12T16:25:38;2.50;;;1.67;;
16460;SDS011;8341;42.048;24.650;2023-08-12T16:28:05;3.28;;;1.90;;
16460;SDS011;8341;42.048;24.650;2023-08-12T16:30:32;2.00;;;1.90;;
16460;SDS011;8341;42.048;24.650;2023-08-12T16:33:00;1.60;;;1.50;;
16460;SDS011;8341;42.048;24.650;2023-08-12T16:35:27;2.13;;;1.70;;
16460;SDS011;8341;42.048;24.650;2023-08-12T16:37:55;1.85;;;1.73;;
16460;SDS011;8341;42.048;24.650;2023-08-12T16:40:22;2.63;;;1.98;;
16460;SDS011;8341;42.048;24.650;2023-08-12T16:42:52;2.75;;;1.50;;
16460;SDS011;8341;42.048;24.650;2023-08-12T16:45:19;1.95;;;1.45;;
16460;SDS011;8341;42.048;24.650;2023-08-12T16:47:46;1.80;;;1.70;;
16460;SDS011;8341;42.048;24.650;2023-08-12T16:50:13;1.95;;;1.80;;
16460;SDS011;8341;42.048;24.650;2023-08-12T16:52:40;6.03;;;3.47;;
16460;SDS011;8341;42.048;24.650;2023-08-12T16:55:09;3.90;;;3.35;;
16460;SDS011;8341;42.048;24.650;2023-08-12T16:57:36;3.97;;;1.80;;
16460;SDS011;8341;42.048;24.650;2023-08-12T17:00:04;1.60;;;1.50;;
16460;SDS011;8341;42.048;24.650;2023-08-12T17:02:33;1.67;;;1.58;;
16460;SDS011;8341;42.048;24.650;2023-08-12T17:05:00;3.33;;;2.97;;
16460;SDS011;8341;42.048;24.650;2023-08-12T17:07:27;2.25;;;2.15;;
16460;SDS011;8341;42.048;24.650;2023-08-12T17:09:54;2.33;;;2.17;;
16460;SDS011;8341;42.048;24.650;2023-08-12T17:12:24;3.38;;;2.10;;
16460;SDS011;8341;42.048;24.650;2023-08-12T17:14:51;5.38;;;2.13;;
16460;SDS011;8341;42.048;24.650;2023-08-12T17:17:18;7.30;;;3.47;;
16460;SDS011;8341;42.048;24.650;2023-08-12T17:19:45;13.90;;;9.20;;
16460;SDS011;8341;42.048;24.650;2023-08-12T17:22:12;5.10;;;3.58;;
16460;SDS011;8341;42.048;24.650;2023-08-12T17:24:39;3.75;;;3.38;;
16460;SDS011;8341;42.048;24.650;2023-08-12T17:27:06;9.38;;;4.95;;
16460;SDS011;8341;42.048;24.650;2023-08-12T17:29:34;5.75;;;4.50;;
16460;SDS011;8341;42.048;24.650;2023-08-12T17:32:01;8.30;;;4.28;;
16460;SDS011;8341;42.048;24.650;2023-08-12T17:34:28;6.53;;;4.20;;
16460;SDS011;8341;42.048;24.650;2023-08-12T17:36:55;6.07;;;4.38;;
16460;SDS011;8341;42.048;24.650;2023-08-12T17:39:22;14.43;;;8.25;;
16460;SDS011;8341;42.048;24.650;2023-08-12T17:41:49;13.20;;;7.68;;
16460;SDS011;8341;42.048;24.650;2023-08-12T17:44:16;4.28;;;3.30;;
16460;SDS011;8341;42.048;24.650;2023-08-12T17:46:45;7.68;;;5.60;;
16460;SDS011;8341;42.048;24.650;2023-08-12T17:49:12;4.93;;;4.43;;
16460;SDS011;8341;42.048;24.650;2023-08-12T17:51:39;5.25;;;3.35;;
16460;SDS011;8341;42.048;24.650;2023-08-12T17:54:06;4.40;;;4.10;;
16460;SDS011;8341;42.048;24.650;2023-08-12T17:56:33;4.88;;;4.15;;
16460;SDS011;8341;42.048;24.650;2023-08-12T17:59:00;6.75;;;5.55;;
16460;SDS011;8341;42.048;24.650;2023-08-12T18:01:27;11.82;;;8.52;;
16460;SDS011;8341;42.048;24.650;2023-08-12T18:03:55;6.78;;;5.00;;